Time;durP1;ratioP1;P1;durP2;ratioP2;P2;SDS_P1;SDS_P2;PMS_P1;PMS_P2;Temp;Humidity;BMP_temperature;BMP_pressure;BME280_temperature;BME280_humidity;BME280_pressure;Samples;Min_cycle;Max_cycle;Signal;HPM_P1;HPM_P2
2023/07/01 00:01:33;;;;;;;14.52;8.90;;;;;;;18.11;53.13;100673.16;4976183;28;20039;-65
2023/07/01 00:03:58;;;;;;;16.55;8.57;;;;;;;18.07;53.12;100671.09;4976130;28;20030;-65
2023/07/01 00:06:23;;;;;;;17.48;8.40;;;;;;;18.09;53.70;100665.13;4976110;28;20030;-65
2023/07/01 00:08:49;;;;;;;13.85;8.60;;;;;;;18.08;53.54;100672.72;4974884;28;20125;-65
2023/07/01 00:11:14;;;;;;;17.13;8.70;;;;;;;18.05;53.86;100653.84;4976139;28;20167;-64
2023/07/01 00:13:40;;;;;;;15.57;8.70;;;;;;;18.03;53.95;100647.00;4975991;28;20050;-64
2023/07/01 00:16:05;;;;;;;15.05;8.82;;;;;;;18.01;53.99;100644.53;4976176;28;20038;-65
2023/07/01 00:18:31;;;;;;;15.55;8.48;;;;;;;18.02;53.87;100642.56;4975843;28;20130;-65
2023/07/01 00:20:56;;;;;;;15.02;8.80;;;;;;;18.01;54.28;100641.72;4975794;28;20050;-65
2023/07/01 00:23:21;;;;;;;18.02;9.23;;;;;;;18.01;54.35;100635.34;4975858;28;20609;-64
2023/07/01 00:25:47;;;;;;;17.15;8.60;;;;;;;18.02;54.78;100634.97;4975904;28;20038;-65
2023/07/01 00:28:13;;;;;;;15.52;8.55;;;;;;;18.02;54.86;100626.56;4975703;28;20053;-65
2023/07/01 00:30:39;;;;;;;16.00;8.77;;;;;;;18.02;55.27;100626.56;4975681;28;20059;-64
2023/07/01 00:33:05;;;;;;;18.88;8.70;;;;;;;18.01;55.81;100621.34;4975415;28;20031;-64
2023/07/01 00:35:31;;;;;;;15.15;8.80;;;;;;;18.01;55.82;100630.53;4975588;28;20039;-64
2023/07/01 00:37:57;;;;;;;17.10;8.90;;;;;;;17.98;55.84;100620.09;4975520;28;20027;-64
2023/07/01 00:40:22;;;;;;;16.38;8.60;;;;;;;17.96;56.04;100616.84;4975345;28;20027;-64
2023/07/01 00:42:48;;;;;;;14.50;8.85;;;;;;;17.95;56.66;100600.38;4975144;28;20069;-64
2023/07/01 00:45:13;;;;;;;15.68;8.93;;;;;;;17.91;56.36;100606.69;4975130;28;20058;-64
2023/07/01 00:47:39;;;;;;;18.55;9.25;;;;;;;17.90;56.74;100607.88;4975441;28;20234;-65
2023/07/01 00:50:09;;;;;;;16.33;8.90;;;;;;;17.84;57.16;100598.13;4975375;28;20495;-64
2023/07/01 00:52:34;;;;;;;14.32;8.57;;;;;;;17.84;57.62;100600.09;4975539;28;20034;-64
2023/07/01 00:55:00;;;;;;;16.27;9.13;;;;;;;17.81;57.86;100587.66;4975156;28;20394;-64
2023/07/01 00:57:25;;;;;;;16.65;9.40;;;;;;;17.81;57.90;100596.06;4975000;28;20493;-64
2023/07/01 00:59:50;;;;;;;15.93;8.88;;;;;;;17.76;58.26;100583.16;4975106;28;20031;-65
2023/07/01 01:02:27;;;;;;;17.10;9.23;;;;;;;17.70;58.48;100580.97;4974111;28;20106;-65
2023/07/01 01:05:01;;;;;;;16.00;9.02;;;;;;;17.72;59.04;100582.22;4997827;28;20029;-65
2023/07/01 01:07:42;;;;;;;16.67;8.80;;;;;;;17.71;59.20;100574.22;5013876;28;20044;-65
2023/07/01 01:10:13;;;;;;;15.50;8.80;;;;;;;17.68;58.90;100574.94;5014180;28;20069;-65
2023/07/01 01:12:40;;;;;;;14.90;8.80;;;;;;;17.73;59.42;100583.06;5013783;28;20036;-65
2023/07/01 01:15:08;;;;;;;15.15;8.63;;;;;;;17.72;59.52;100582.22;5013778;28;20038;-64
2023/07/01 01:17:38;;;;;;;16.45;8.95;;;;;;;17.75;59.75;100569.53;5013716;28;20497;-64
2023/07/01 01:20:13;;;;;;;18.55;9.23;;;;;;;17.75;60.32;100570.31;5013517;28;20041;-65
2023/07/01 01:23:02;;;;;;;14.80;8.85;;;;;;;17.78;60.23;100558.44;5013592;28;20030;-65
2023/07/01 01:25:32;;;;;;;16.88;9.20;;;;;;;17.78;60.83;100563.19;5007416;28;20084;-65
2023/07/01 01:27:58;;;;;;;15.40;8.90;;;;;;;17.78;61.28;100563.19;5013497;28;20165;-66
2023/07/01 01:30:24;;;;;;;18.85;10.10;;;;;;;17.77;61.72;100556.78;5013345;28;20482;-66
2023/07/01 01:32:50;;;;;;;16.10;9.20;;;;;;;17.78;61.99;100554.78;5013436;28;20037;-65
2023/07/01 01:35:15;;;;;;;18.13;9.30;;;;;;;17.75;61.99;100549.94;5013535;28;20025;-65
2023/07/01 01:37:52;;;;;;;17.20;9.30;;;;;;;17.75;61.63;100553.53;5013453;28;20029;-65
2023/07/01 01:40:23;;;;;;;16.67;9.13;;;;;;;17.72;62.22;100545.88;5013153;28;20041;-65
2023/07/01 01:42:51;;;;;;;16.40;9.27;;;;;;;17.71;62.64;100540.63;5013323;28;20018;-65
2023/07/01 01:45:19;;;;;;;18.50;9.00;;;;;;;17.61;62.71;100526.03;5013289;28;20032;-66
2023/07/01 01:47:47;;;;;;;17.08;8.90;;;;;;;17.68;62.98;100532.97;5013191;28;20034;-65
2023/07/01 01:50:16;;;;;;;15.98;9.23;;;;;;;17.69;63.33;100538.22;5013209;28;20018;-65
2023/07/01 01:52:41;;;;;;;14.93;9.27;;;;;;;17.67;64.00;100529.38;5013093;28;20153;-64
2023/07/01 01:55:09;;;;;;;15.13;9.10;;;;;;;17.66;64.61;100535.34;5013071;28;20029;-64
2023/07/01 01:57:35;;;;;;;16.08;9.25;;;;;;;17.61;65.39;100525.25;5012992;28;20490;-64
2023/07/01 02:00:00;;;;;;;18.15;9.52;;;;;;;17.59;65.64;100514.38;5012941;28;20038;-64
2023/07/01 02:02:26;;;;;;;17.67;9.80;;;;;;;17.53;66.48;100515.03;5012681;28;20072;-64
2023/07/01 02:04:51;;;;;;;17.17;9.85;;;;;;;17.52;66.82;100511.44;5012618;28;20066;-63
2023/07/01 02:07:16;;;;;;;17.92;9.80;;;;;;;17.50;67.34;100508.16;5012738;28;20068;-64
2023/07/01 02:09:42;;;;;;;16.27;10.07;;;;;;;17.49;67.97;100500.97;5012714;28;20091;-63
2023/07/01 02:12:07;;;;;;;16.63;9.90;;;;;;;17.45;68.18;100500.88;5012541;28;20022;-63
2023/07/01 02:14:33;;;;;;;17.80;9.68;;;;;;;17.43;68.57;100502.41;5012550;28;20045;-63
2023/07/01 02:16:58;;;;;;;18.73;10.00;;;;;;;17.43;68.79;100502.41;5012694;28;20029;-63
2023/07/01 02:19:23;;;;;;;16.60;9.90;;;;;;;17.43;69.21;100505.22;5012612;28;20053;-63
2023/07/01 02:21:49;;;;;;;19.13;9.95;;;;;;;17.43;69.65;100496.81;5011125;28;20112;-63
2023/07/01 02:24:14;;;;;;;15.50;9.20;;;;;;;17.36;69.96;100491.84;5012573;28;20037;-63
2023/07/01 02:26:40;;;;;;;16.40;9.20;;;;;;;17.35;70.53;100497.81;5012587;28;20037;-63
2023/07/01 02:29:05;;;;;;;16.55;9.38;;;;;;;17.31;71.37;100495.72;5010830;28;20096;-64
2023/07/01 02:31:30;;;;;;;17.70;9.00;;;;;;;17.29;71.45;100489.69;5012441;28;20498;-64
2023/07/01 02:34:02;;;;;;;16.50;9.27;;;;;;;17.25;72.59;100488.81;5012367;28;20057;-64
2023/07/01 02:36:28;;;;;;;15.25;8.93;;;;;;;17.20;74.67;100491.84;5012389;28;20067;-64
2023/07/01 02:38:54;;;;;;;15.48;9.07;;;;;;;17.09;76.36;100485.19;5012407;28;20022;-64
2023/07/01 02:41:19;;;;;;;17.38;9.10;;;;;;;17.03;77.59;100473.47;5012017;28;20379;-65
2023/07/01 02:43:44;;;;;;;17.83;9.80;;;;;;;16.98;78.30;100465.34;5012189;28;20038;-64
2023/07/01 02:46:09;;;;;;;17.55;9.60;;;;;;;16.90;79.11;100469.91;5012300;28;20080;-65
2023/07/01 02:48:35;;;;;;;17.50;9.52;;;;;;;16.90;79.20;100471.88;5012310;28;20033;-63
2023/07/01 02:51:00;;;;;;;17.35;9.48;;;;;;;16.85;79.81;100472.97;5012460;28;20494;-64
2023/07/01 02:53:26;;;;;;;19.27;10.20;;;;;;;16.85;80.03;100472.97;5012255;28;20196;-64
2023/07/01 02:55:51;;;;;;;19.35;9.80;;;;;;;16.79;80.98;100464.03;5012023;28;20596;-64
2023/07/01 02:58:19;;;;;;;18.10;10.23;;;;;;;16.75;83.78;100474.31;5011839;28;20026;-64
2023/07/01 03:00:45;;;;;;;16.58;9.98;;;;;;;16.71;85.94;100467.00;5010758;28;20034;-64
2023/07/01 03:03:11;;;;;;;16.35;9.43;;;;;;;16.66;87.29;100470.88;5011990;28;20087;-64
2023/07/01 03:05:36;;;;;;;15.77;9.73;;;;;;;16.59;88.96;100477.06;5011863;28;20454;-64
2023/07/01 03:08:04;;;;;;;18.98;10.10;;;;;;;16.50;89.60;100463.25;5011710;28;20034;-65
2023/07/01 03:10:29;;;;;;;17.40;9.23;;;;;;;16.49;90.50;100460.81;5011881;28;20065;-64
2023/07/01 03:12:55;;;;;;;16.20;10.15;;;;;;;16.48;90.67;100473.16;5011881;28;20679;-64
2023/07/01 03:15:20;;;;;;;16.50;10.20;;;;;;;16.42;91.80;100458.63;5011905;28;20037;-65
2023/07/01 03:17:47;;;;;;;16.13;10.27;;;;;;;16.38;92.85;100452.94;5011915;28;20029;-65
2023/07/01 03:20:22;;;;;;;15.68;10.65;;;;;;;16.31;94.98;100455.53;5011844;28;20022;-63
2023/07/01 03:22:49;;;;;;;18.38;10.68;;;;;;;16.24;95.96;100446.13;5011892;28;20103;-64
2023/07/01 03:25:15;;;;;;;16.75;10.38;;;;;;;16.21;97.22;100453.25;5014341;28;20378;-65
2023/07/01 03:27:41;;;;;;;17.05;10.43;;;;;;;16.17;98.72;100447.56;5015832;28;20108;-64
2023/07/01 03:30:13;;;;;;;17.08;10.10;;;;;;;16.14;98.70;100441.88;5015461;28;20511;-62
2023/07/01 03:32:39;;;;;;;16.13;10.25;;;;;;;16.16;99.18;100432.00;5016086;28;20045;-64
2023/07/01 03:35:05;;;;;;;16.23;10.63;;;;;;;16.16;99.33;100442.31;5015582;28;20024;-63
2023/07/01 03:37:30;;;;;;;16.35;10.25;;;;;;;16.14;99.04;100436.31;5015507;28;20041;-65
2023/07/01 03:39:56;;;;;;;18.20;10.60;;;;;;;16.09;99.66;100434.56;5015272;28;20053;-64
2023/07/01 03:42:21;;;;;;;17.73;10.57;;;;;;;16.09;99.81;100436.53;5015312;28;20454;-64
2023/07/01 03:44:47;;;;;;;16.80;10.75;;;;;;;16.02;100.00;100432.38;5015384;28;20048;-64
2023/07/01 03:47:13;;;;;;;16.95;10.77;;;;;;;16.01;100.00;100425.19;5015265;28;20381;-64
2023/07/01 03:49:38;;;;;;;17.20;11.10;;;;;;;15.95;100.00;100423.81;5015271;28;20030;-64
2023/07/01 03:52:04;;;;;;;18.20;10.73;;;;;;;15.96;100.00;100421.81;5015280;28;20038;-64
2023/07/01 03:54:29;;;;;;;17.63;11.00;;;;;;;15.96;100.00;100421.81;5003686;28;20370;-64
2023/07/01 03:56:55;;;;;;;16.73;10.85;;;;;;;15.90;100.00;100426.84;4995388;28;20037;-64
2023/07/01 03:59:20;;;;;;;15.65;10.82;;;;;;;15.85;100.00;100421.50;4995472;28;20042;-64
2023/07/01 04:01:45;;;;;;;16.55;10.82;;;;;;;15.81;100.00;100423.34;4995330;28;20030;-64
2023/07/01 04:04:11;;;;;;;20.27;11.25;;;;;;;15.77;100.00;100414.88;4994116;28;20030;-64
2023/07/01 04:06:36;;;;;;;15.68;10.95;;;;;;;15.73;100.00;100409.19;4995353;28;20088;-64
2023/07/01 04:09:02;;;;;;;17.25;11.10;;;;;;;15.67;100.00;100410.59;4995089;28;20030;-64
2023/07/01 04:11:27;;;;;;;17.98;11.15;;;;;;;15.67;100.00;100410.59;4995587;28;20034;-64
2023/07/01 04:13:52;;;;;;;17.15;11.25;;;;;;;15.67;100.00;100407.81;4995306;28;20027;-64
2023/07/01 04:16:18;;;;;;;16.42;10.93;;;;;;;15.64;100.00;100405.72;4995237;28;20551;-64
2023/07/01 04:18:43;;;;;;;17.77;11.23;;;;;;;15.63;100.00;100406.88;4995155;28;20027;-64
2023/07/01 04:21:09;;;;;;;16.63;11.25;;;;;;;15.54;100.00;100401.44;4995037;28;20053;-64
2023/07/01 04:23:35;;;;;;;17.48;11.63;;;;;;;15.51;100.00;100401.31;4994944;28;20109;-64
2023/07/01 04:26:00;;;;;;;17.58;11.52;;;;;;;15.47;100.00;100400.41;4994985;28;20030;-64
2023/07/01 04:28:26;;;;;;;17.98;11.55;;;;;;;15.43;100.00;100389.16;4994876;28;20367;-63
2023/07/01 04:30:51;;;;;;;16.38;11.45;;;;;;;15.41;100.00;100385.91;4994651;28;20402;-63
2023/07/01 04:33:16;;;;;;;16.23;11.20;;;;;;;15.40;100.00;100389.84;4994849;28;20033;-64
2023/07/01 04:35:42;;;;;;;17.08;11.77;;;;;;;15.36;100.00;100383.34;4993614;28;20793;-64
2023/07/01 04:38:07;;;;;;;17.33;11.27;;;;;;;15.31;100.00;100381.59;4994669;28;20030;-63
2023/07/01 04:40:32;;;;;;;17.40;11.30;;;;;;;15.29;100.00;100375.59;4994688;28;20027;-64
2023/07/01 04:42:57;;;;;;;15.95;10.80;;;;;;;15.27;100.00;100380.69;4994584;28;20486;-64
2023/07/01 04:45:23;;;;;;;17.70;11.02;;;;;;;15.29;100.00;100378.38;4994625;28;20060;-64
2023/07/01 04:47:48;;;;;;;16.88;11.25;;;;;;;15.23;100.00;100375.00;4994614;28;20022;-64
2023/07/01 04:50:14;;;;;;;17.58;11.05;;;;;;;15.25;100.00;100383.84;4994570;28;20053;-64
2023/07/01 04:52:39;;;;;;;16.35;10.95;;;;;;;15.25;100.00;100375.47;4993126;28;20062;-64
2023/07/01 04:55:05;;;;;;;17.38;11.25;;;;;;;15.27;100.00;100369.53;4993297;28;20386;-63
2023/07/01 04:57:30;;;;;;;16.67;11.00;;;;;;;15.26;100.00;100362.34;4994423;28;20522;-64
2023/07/01 04:59:56;;;;;;;16.23;11.40;;;;;;;15.26;100.00;100363.13;4994389;28;20023;-64
2023/07/01 05:02:21;;;;;;;16.98;11.18;;;;;;;15.26;100.00;100362.34;4994360;28;20034;-64
2023/07/01 05:04:46;;;;;;;18.48;11.60;;;;;;;15.26;100.00;100353.97;4994461;28;20030;-64
2023/07/01 05:07:12;;;;;;;16.27;11.20;;;;;;;15.26;100.00;100363.13;4992892;28;20030;-64
2023/07/01 05:09:37;;;;;;;15.60;10.90;;;;;;;15.26;100.00;100356.75;4994092;28;20040;-64
2023/07/01 05:12:02;;;;;;;17.20;11.63;;;;;;;15.30;100.00;100363.28;4994236;28;20027;-64
2023/07/01 05:14:28;;;;;;;16.95;11.43;;;;;;;15.29;100.00;100364.44;4994120;28;20025;-64
2023/07/01 05:16:54;;;;;;;16.65;11.30;;;;;;;15.32;100.00;100360.13;4994064;28;20459;-64
2023/07/01 05:19:19;;;;;;;16.40;10.95;;;;;;;15.35;100.00;100360.25;4993973;28;20048;-64
2023/07/01 05:21:52;;;;;;;16.58;11.25;;;;;;;15.37;100.00;100368.25;4993974;28;20033;-64
2023/07/01 05:24:17;;;;;;;17.63;11.60;;;;;;;15.35;100.00;100360.25;4993950;28;20038;-64
2023/07/01 05:26:50;;;;;;;16.90;11.57;;;;;;;15.40;100.00;100357.19;4994030;28;20018;-64
2023/07/01 05:29:17;;;;;;;16.58;11.40;;;;;;;15.34;100.00;100360.59;4993644;28;20047;-64
2023/07/01 05:31:42;;;;;;;17.02;11.73;;;;;;;15.35;100.00;100357.44;4993728;28;20106;-64
2023/07/01 05:34:08;;;;;;;17.88;11.85;;;;;;;15.36;100.00;100347.94;4993729;28;20106;-64
2023/07/01 05:36:33;;;;;;;17.08;11.43;;;;;;;15.36;100.00;100359.09;4993596;28;20030;-64
2023/07/01 05:38:59;;;;;;;17.38;11.75;;;;;;;15.36;100.00;100350.72;4993366;28;20078;-64
2023/07/01 05:41:24;;;;;;;16.20;11.10;;;;;;;15.39;100.00;100352.81;4992139;28;20117;-64
2023/07/01 05:43:50;;;;;;;17.90;11.60;;;;;;;15.40;100.00;100348.03;4993590;28;20447;-63
2023/07/01 05:46:15;;;;;;;18.77;11.90;;;;;;;15.43;100.00;100350.94;4992161;28;20074;-64
2023/07/01 05:48:41;;;;;;;16.38;11.35;;;;;;;15.44;100.00;100338.63;4991717;28;20022;-65
2023/07/01 05:51:06;;;;;;;17.45;11.95;;;;;;;15.43;100.00;100338.97;4993468;28;20084;-64
2023/07/01 05:53:32;;;;;;;16.92;11.68;;;;;;;15.43;100.00;100350.94;4992055;28;20116;-65
2023/07/01 05:55:57;;;;;;;17.25;11.90;;;;;;;15.38;100.00;100333.63;4993395;28;20066;-64
2023/07/01 05:58:22;;;;;;;16.35;11.75;;;;;;;15.44;100.00;100335.84;4993356;28;20034;-65
2023/07/01 06:00:49;;;;;;;17.83;11.98;;;;;;;15.37;100.00;100345.94;4991991;28;20096;-65
2023/07/01 06:03:14;;;;;;;17.75;12.30;;;;;;;15.37;100.00;100341.19;4993266;28;20026;-64
2023/07/01 06:05:40;;;;;;;17.50;12.02;;;;;;;15.38;100.00;100345.63;4993165;28;20026;-64
2023/07/01 06:08:05;;;;;;;20.98;12.50;;;;;;;15.43;100.00;100341.78;4993140;28;20613;-63
2023/07/01 06:10:30;;;;;;;18.73;13.10;;;;;;;15.44;100.00;100341.41;4991810;28;20041;-64
2023/07/01 06:12:56;;;;;;;18.83;12.50;;;;;;;15.48;100.00;100335.94;4992960;28;20066;-64
2023/07/01 06:15:21;;;;;;;18.15;12.30;;;;;;;15.54;100.00;100331.72;4993104;28;20042;-64
2023/07/01 06:17:47;;;;;;;17.30;11.93;;;;;;;15.58;100.00;100335.44;4991553;28;20026;-64
2023/07/01 06:20:12;;;;;;;17.98;12.20;;;;;;;15.63;100.00;100330.81;4992829;28;20034;-63
2023/07/01 06:22:39;;;;;;;19.40;12.23;;;;;;;15.60;100.00;100321.16;4992793;28;20109;-64
2023/07/01 06:25:04;;;;;;;18.83;12.38;;;;;;;15.69;100.00;100332.97;4992765;28;20027;-63
2023/07/01 06:27:30;;;;;;;18.25;11.93;;;;;;;15.74;100.00;100329.94;4992708;28;20070;-64
2023/07/01 06:29:55;;;;;;;17.80;12.35;;;;;;;15.79;100.00;100325.25;4992646;28;20435;-64
2023/07/01 06:32:20;;;;;;;16.63;11.52;;;;;;;15.83;100.00;100326.19;4992704;28;20034;-64
2023/07/01 06:34:46;;;;;;;18.05;11.65;;;;;;;15.85;100.00;100323.91;4992673;28;20022;-64
2023/07/01 06:37:11;;;;;;;19.55;11.60;;;;;;;15.88;100.00;100331.53;4992554;28;20109;-64
2023/07/01 06:39:36;;;;;;;18.33;12.02;;;;;;;15.89;100.00;100320.03;4992692;28;20030;-64
2023/07/01 06:42:02;;;;;;;17.40;11.77;;;;;;;15.97;100.00;100321.03;4992686;28;20121;-64
2023/07/01 06:44:27;;;;;;;18.35;11.55;;;;;;;16.00;100.00;100322.31;4992699;28;20050;-63
2023/07/01 06:46:53;;;;;;;17.55;11.77;;;;;;;15.99;100.00;100318.69;4992439;28;20109;-63
2023/07/01 06:49:18;;;;;;;17.55;11.75;;;;;;;15.98;100.00;100319.88;4992455;28;20057;-63
2023/07/01 06:51:43;;;;;;;17.23;11.65;;;;;;;16.05;100.00;100324.84;4992504;28;20030;-63
2023/07/01 06:54:10;;;;;;;17.48;11.63;;;;;;;16.07;100.00;100319.72;4991078;28;20442;-63
2023/07/01 06:56:35;;;;;;;17.55;11.30;;;;;;;16.06;100.00;100324.47;4992641;28;20117;-63
2023/07/01 06:59:00;;;;;;;15.85;10.88;;;;;;;16.07;100.00;100316.94;4991733;28;20114;-64
2023/07/01 07:01:26;;;;;;;16.70;11.30;;;;;;;16.10;100.00;100318.19;4992403;28;20053;-63
2023/07/01 07:03:51;;;;;;;16.55;10.90;;;;;;;16.10;100.00;100307.03;4996715;28;20068;-63
2023/07/01 07:06:16;;;;;;;15.23;10.70;;;;;;;16.13;100.00;100317.50;5011971;28;20120;-64
2023/07/01 07:08:41;;;;;;;16.33;10.85;;;;;;;16.14;100.00;100321.91;5012073;28;20042;-64
2023/07/01 07:11:07;;;;;;;17.35;10.80;;;;;;;16.12;100.00;100313.88;5012078;28;20116;-64
2023/07/01 07:13:32;;;;;;;15.40;10.43;;;;;;;16.11;100.00;100308.66;5012259;28;20040;-64
2023/07/01 07:15:57;;;;;;;16.40;10.70;;;;;;;16.10;100.00;100319.03;5012041;28;20038;-65
2023/07/01 07:18:23;;;;;;;16.33;10.95;;;;;;;16.12;100.00;100310.28;5011960;28;20065;-64
2023/07/01 07:20:48;;;;;;;15.77;10.48;;;;;;;16.10;100.00;100312.59;5011787;28;20029;-64
2023/07/01 07:23:13;;;;;;;16.67;11.02;;;;;;;16.13;100.00;100311.91;5011683;28;20157;-64
2023/07/01 07:25:39;;;;;;;15.07;10.30;;;;;;;16.17;100.00;100321.16;5012206;28;20018;-64
2023/07/01 07:28:04;;;;;;;16.42;10.50;;;;;;;16.19;100.00;100316.03;5012157;28;20374;-64
2023/07/01 07:30:30;;;;;;;19.05;10.60;;;;;;;16.19;100.00;100310.47;5011902;28;20050;-65
2023/07/01 07:32:55;;;;;;;17.10;10.70;;;;;;;16.18;100.00;100318.03;5012170;28;20499;-65
2023/07/01 07:35:21;;;;;;;16.67;10.65;;;;;;;16.16;100.00;100302.81;5012119;28;20034;-64
2023/07/01 07:37:47;;;;;;;16.30;10.63;;;;;;;16.19;100.00;100302.09;5011958;28;20474;-65
2023/07/01 07:40:13;;;;;;;16.48;10.48;;;;;;;16.16;100.00;100309.22;5011992;28;20030;-65
2023/07/01 07:42:38;;;;;;;15.57;10.50;;;;;;;16.19;100.00;100316.03;5011742;28;20520;-64
2023/07/01 07:45:04;;;;;;;15.50;10.23;;;;;;;16.25;100.00;100314.59;5012072;28;20044;-63
2023/07/01 07:47:30;;;;;;;16.58;10.70;;;;;;;16.32;100.00;100312.03;5011963;28;20061;-64
2023/07/01 07:49:55;;;;;;;16.20;10.82;;;;;;;16.34;100.00;100304.09;5012011;28;20054;-64
2023/07/01 07:52:21;;;;;;;16.27;10.70;;;;;;;16.42;100.00;100309.88;5011839;28;20397;-64
2023/07/01 07:54:46;;;;;;;16.42;10.77;;;;;;;16.39;100.00;100305.78;5012003;28;20030;-64
2023/07/01 07:57:13;;;;;;;15.52;10.75;;;;;;;16.40;100.00;100301.03;5011916;28;20482;-65
2023/07/01 07:59:42;;;;;;;16.58;10.73;;;;;;;16.39;100.00;100300.22;5011872;28;20033;-64
2023/07/01 08:02:08;;;;;;;17.23;10.75;;;;;;;16.38;100.00;100305.00;5011592;28;20030;-63
2023/07/01 08:04:34;;;;;;;16.25;11.25;;;;;;;16.36;100.00;100304.53;5011713;28;20619;-64
2023/07/01 08:07:00;;;;;;;16.83;10.88;;;;;;;16.39;100.00;100300.22;5011763;28;20100;-64
2023/07/01 08:09:25;;;;;;;17.35;11.45;;;;;;;16.44;100.00;100287.97;5011830;28;20080;-64
2023/07/01 08:11:51;;;;;;;16.60;10.88;;;;;;;16.47;100.00;100287.25;5015023;28;20431;-64
2023/07/01 08:14:19;;;;;;;15.98;10.80;;;;;;;16.46;100.00;100280.06;4997692;28;20054;-64
2023/07/01 08:16:44;;;;;;;17.35;11.70;;;;;;;16.51;100.00;100288.16;4974750;28;20042;-64
2023/07/01 08:19:10;;;;;;;17.67;11.48;;;;;;;16.51;100.00;100285.38;4975013;28;20034;-64
2023/07/01 08:21:37;;;;;;;16.25;11.45;;;;;;;16.56;100.00;100284.28;4989732;28;20079;-64
2023/07/01 08:24:12;;;;;;;19.17;11.82;;;;;;;16.58;100.00;100284.75;4975242;28;20045;-64
2023/07/01 08:26:37;;;;;;;16.95;11.27;;;;;;;16.63;100.00;100282.47;4976242;28;20372;-64
2023/07/01 08:29:06;;;;;;;18.00;11.52;;;;;;;16.70;100.00;100281.84;4984234;28;20057;-65
2023/07/01 08:31:32;;;;;;;16.02;11.10;;;;;;;16.77;100.00;100286.78;4989760;28;20370;-65
2023/07/01 08:33:58;;;;;;;16.20;11.10;;;;;;;16.81;100.00;100282.13;4984974;28;20033;-63
2023/07/01 08:36:24;;;;;;;16.13;10.57;;;;;;;16.89;100.00;100283.06;4979687;28;20089;-65
2023/07/01 08:38:49;;;;;;;15.32;10.63;;;;;;;16.96;100.00;100288.84;4982087;28;20451;-66
2023/07/01 08:41:16;;;;;;;15.90;10.90;;;;;;;17.02;100.00;100279.03;4982465;28;20031;-65
2023/07/01 08:43:47;;;;;;;16.23;10.65;;;;;;;17.01;100.00;100271.81;4984409;28;20495;-65
2023/07/01 08:46:15;;;;;;;17.02;11.10;;;;;;;17.23;100.00;100281.50;4987226;28;20034;-64
2023/07/01 08:48:43;;;;;;;16.08;10.80;;;;;;;17.36;100.00;100284.16;4980712;28;20046;-63
2023/07/01 08:51:09;;;;;;;15.40;10.50;;;;;;;17.48;100.00;100274.81;4993237;28;20058;-64
2023/07/01 08:53:36;;;;;;;14.30;10.30;;;;;;;17.42;100.00;100280.72;4993978;28;20069;-65
2023/07/01 08:56:03;;;;;;;14.30;10.18;;;;;;;17.34;100.00;100272.53;4993521;28;20040;-65
2023/07/01 08:58:29;;;;;;;15.30;10.55;;;;;;;17.25;100.00;100265.19;4993552;28;20030;-65
2023/07/01 09:00:56;;;;;;;14.65;10.20;;;;;;;17.24;100.00;100265.56;4993024;28;20034;-65
2023/07/01 09:03:22;;;;;;;13.30;10.05;;;;;;;17.23;100.00;100270.31;4982668;28;20038;-66
2023/07/01 09:05:48;;;;;;;13.88;10.00;;;;;;;17.26;100.00;100268.75;4975589;28;20026;-65
2023/07/01 09:08:13;;;;;;;15.35;10.57;;;;;;;17.31;100.00;100269.28;4973902;28;20439;-65
2023/07/01 09:10:38;;;;;;;14.40;10.25;;;;;;;17.31;100.00;100263.69;4974174;28;20041;-64
2023/07/01 09:13:14;;;;;;;14.55;10.18;;;;;;;17.34;100.00;100272.53;4974172;28;20033;-64
2023/07/01 09:15:45;;;;;;;15.15;10.35;;;;;;;17.27;100.00;100271.22;4974005;28;20030;-64
2023/07/01 09:18:25;;;;;;;13.55;10.15;;;;;;;17.36;100.00;100270.19;4973904;28;20740;-64
2023/07/01 09:20:51;;;;;;;13.52;10.20;;;;;;;17.39;100.00;100273.06;4973838;28;20109;-64
2023/07/01 09:23:28;;;;;;;15.27;10.07;;;;;;;17.40;100.00;100259.88;4972796;28;20106;-64
2023/07/01 09:26:17;;;;;;;12.75;9.70;;;;;;;17.53;100.00;100260.53;4992337;28;20462;-64
2023/07/01 09:28:45;;;;;;;13.13;10.10;;;;;;;17.52;100.00;100264.53;4980110;28;20114;-65
2023/07/01 09:31:14;;;;;;;13.45;10.10;;;;;;;17.64;100.00;100257.97;4973082;28;20046;-63
2023/07/01 09:33:40;;;;;;;14.13;9.90;;;;;;;17.74;100.00;100260.19;4971342;28;20031;-64
2023/07/01 09:36:07;;;;;;;12.77;9.60;;;;;;;17.77;100.00;100259.41;4973256;28;20089;-64
2023/07/01 09:38:34;;;;;;;12.90;9.98;;;;;;;17.78;100.00;100256.28;4978062;28;20107;-64
2023/07/01 09:41:17;;;;;;;13.82;9.90;;;;;;;17.78;100.00;100261.03;4994421;28;20466;-65
2023/07/01 09:43:42;;;;;;;12.50;10.00;;;;;;;17.77;100.00;100251.84;4992328;28;20038;-64
2023/07/01 09:46:08;;;;;;;14.02;9.90;;;;;;;17.75;100.00;100251.41;4992491;28;20639;-62
2023/07/01 09:48:34;;;;;;;14.23;9.82;;;;;;;17.77;100.00;100253.81;4992227;28;20026;-65
2023/07/01 09:51:01;;;;;;;12.32;9.80;;;;;;;17.76;100.00;100243.81;4992160;28;20482;-64
2023/07/01 09:53:32;;;;;;;16.80;10.30;;;;;;;17.76;100.00;100252.19;4992182;28;20035;-65
2023/07/01 09:56:00;;;;;;;13.88;10.70;;;;;;;17.80;100.00;100241.91;4992413;28;20030;-64
2023/07/01 09:58:26;;;;;;;13.60;10.57;;;;;;;17.91;100.00;100247.69;4991990;28;20471;-64
2023/07/01 10:00:57;;;;;;;13.57;10.50;;;;;;;17.91;100.00;100248.50;4992074;28;20137;-65
2023/07/01 10:03:26;;;;;;;14.52;10.55;;;;;;;17.88;100.00;100254.84;4992184;28;20030;-66
2023/07/01 10:05:52;;;;;;;14.70;10.70;;;;;;;17.86;100.00;100251.59;4992201;28;20486;-66
2023/07/01 10:08:18;;;;;;;15.52;10.45;;;;;;;17.89;100.00;100244.47;4992338;28;20118;-65
2023/07/01 10:10:44;;;;;;;16.40;11.20;;;;;;;17.90;100.00;100246.09;4992111;28;20506;-66
2023/07/01 10:13:12;;;;;;;15.88;10.90;;;;;;;17.87;100.00;100239.22;4992041;28;20030;-66
2023/07/01 10:15:39;;;;;;;15.98;10.73;;;;;;;17.95;100.00;100245.00;4990489;28;20031;-66
2023/07/01 10:18:20;;;;;;;15.40;10.60;;;;;;;18.00;100.00;100239.91;4990699;28;20036;-66
2023/07/01 10:20:46;;;;;;;15.32;10.93;;;;;;;18.01;100.00;100238.72;4992435;28;20030;-68
2023/07/01 10:23:11;;;;;;;14.80;10.60;;;;;;;18.05;100.00;100242.41;4991810;28;20378;-67
2023/07/01 10:25:40;;;;;;;14.50;10.65;;;;;;;18.10;100.00;100241.28;4990690;28;20683;-67
2023/07/01 10:28:09;;;;;;;15.68;10.60;;;;;;;18.06;100.00;100246.81;4992251;28;20054;-67
2023/07/01 10:30:46;;;;;;;14.18;10.60;;;;;;;18.07;100.00;100234.44;4991947;28;20062;-67
2023/07/01 10:33:30;;;;;;;15.38;10.90;;;;;;;18.16;100.00;100239.00;4998838;28;20180;-66
2023/07/01 10:36:14;;;;;;;15.10;10.55;;;;;;;18.22;100.00;100237.47;5011298;28;20030;-66
2023/07/01 10:38:39;;;;;;;15.07;10.60;;;;;;;18.35;100.00;100226.91;5011765;28;20022;-67
2023/07/01 10:41:06;;;;;;;16.83;11.48;;;;;;;18.46;100.00;100233.50;5011742;28;20352;-67
2023/07/01 10:43:38;;;;;;;15.80;10.48;;;;;;;18.60;100.00;100227.31;5011719;28;20113;-67
2023/07/01 10:46:19;;;;;;;14.15;10.00;;;;;;;18.73;100.00;100227.09;5011862;28;20097;-67
2023/07/01 10:49:06;;;;;;;14.95;10.48;;;;;;;18.80;100.00;100227.22;4998558;28;20037;-67
2023/07/01 10:51:43;;;;;;;14.25;10.23;;;;;;;18.73;100.00;100227.91;4992084;28;20089;-66
2023/07/01 10:54:09;;;;;;;14.70;10.30;;;;;;;18.61;100.00;100234.53;4992043;28;20438;-66
2023/07/01 10:56:36;;;;;;;17.02;10.30;;;;;;;18.58;100.00;100231.69;4990725;28;20081;-68
2023/07/01 10:59:17;;;;;;;14.55;10.20;;;;;;;18.67;100.00;100227.41;4991786;28;20120;-68
2023/07/01 11:01:51;;;;;;;15.55;10.27;;;;;;;18.78;100.00;100224.78;4990225;28;20041;-67
2023/07/01 11:04:19;;;;;;;17.40;10.85;;;;;;;19.01;100.00;100235.97;4991591;28;20042;-67
2023/07/01 11:07:02;;;;;;;16.35;11.25;;;;;;;19.20;100.00;100224.97;4989950;28;20084;-65